| time (UTC) | temp F | wind direction | speed knots | gust knots | rain 1hr in | rain 24hr in | rain mn in | humidity % | barometer mb |
| 20260508214004 | 71 | 348 | 0.9 | 3.5 | 0.00 | 0.01 | 0.01 | 41 | 1015.4 |
| 20260508213940 | 71 | 288 | 2.6 | 7.0 | 0.00 | 0.00 | 0.00 | 45 | 1012.1 |
| 20260508213505 | 71 | 310 | 1.7 | 6.1 | 0.00 | 0.01 | 0.01 | 42 | 1015.2 |
| 20260508213018 | 71 | 174 | 2.6 | 6.1 | 0.00 | 0.01 | 0.01 | 42 | 1015.1 |
| 20260508212938 | 71 | 215 | 2.6 | 7.8 | 0.00 | 0.00 | 0.00 | 39 | 1011.9 |
| 20260508212512 | 71 | 222 | 2.6 | 6.1 | 0.00 | 0.01 | 0.01 | 43 | 1015.2 |
| 20260508212007 | 71 | 236 | 1.7 | 3.5 | 0.00 | 0.01 | 0.01 | 44 | 1015.1 |
| 20260508211526 | 71 | 44 | 0.9 | 4.3 | 0.00 | 0.01 | 0.01 | 48 | 1015.1 |
| 20260508211009 | 71 | 103 | 1.7 | 4.3 | 0.00 | 0.01 | 0.01 | 44 | 1015.1 |
| 20260508210936 | 72 | 225 | 0.9 | 4.3 | 0.00 | 0.00 | 0.00 | 41 | 1011.8 |
| 20260508210506 | 71 | 350 | 0.0 | 4.3 | 0.00 | 0.01 | 0.01 | 48 | 1015.2 |
| 20260508210016 | 71 | 310 | 0.9 | 7.0 | 0.00 | 0.01 | 0.01 | 45 | 1015.2 |
| 20260508205507 | 70 | 321 | 3.5 | 7.0 | 0.00 | 0.01 | 0.01 | 41 | 1015.3 |
| 20260508205011 | 70 | 90 | 1.7 | 4.3 | 0.00 | 0.01 | 0.01 | 47 | 1015.2 |
| 20260508204511 | 70 | 110 | 0.9 | 4.3 | 0.00 | 0.01 | 0.01 | 43 | 1015.3 |
| 20260508204007 | 70 | 229 | 0.9 | 3.5 | 0.00 | 0.01 | 0.01 | 42 | 1015.4 |
| 20260508203932 | 71 | 336 | 0.9 | 3.5 | 0.00 | 0.00 | 0.00 | 41 | 1012.1 |
| 20260508203506 | 70 | 46 | 1.7 | 6.1 | 0.00 | 0.01 | 0.01 | 44 | 1015.4 |
| 20260508203017 | 70 | 30 | 1.7 | 6.1 | 0.00 | 0.01 | 0.01 | 43 | 1015.6 |
| 20260508202932 | 70 | 226 | 2.6 | 7.0 | 0.00 | 0.00 | 0.00 | 44 | 1012.2 |
| 20260508202506 | 70 | 274 | 1.7 | 6.1 | 0.00 | 0.01 | 0.01 | 43 | 1015.6 |
| 20260508202009 | 70 | 188 | 1.7 | 5.2 | 0.00 | 0.01 | 0.01 | 45 | 1015.8 |
| 20260508201931 | 70 | 294 | 0.9 | 6.1 | 0.00 | 0.00 | 0.00 | 41 | 1012.5 |
| 20260508201522 | 69 | 292 | 2.6 | 6.1 | 0.00 | 0.01 | 0.01 | 46 | 1015.8 |
| 20260508201012 | 69 | 270 | 2.6 | 7.8 | 0.00 | 0.01 | 0.01 | 43 | 1015.9 |
| 20260508200930 | 70 | 244 | 1.7 | 5.2 | 0.00 | 0.00 | 0.00 | 40 | 1012.7 |
| 20260508200506 | 69 | 103 | 2.6 | 7.8 | 0.00 | 0.01 | 0.01 | 51 | 1016.0 |
| 20260508200026 | 69 | 308 | 2.6 | 4.3 | 0.00 | 0.01 | 0.01 | 46 | 1016.2 |
| 20260508195928 | 70 | 35 | 2.6 | 7.8 | 0.00 | 0.00 | 0.00 | 40 | 1013.0 |
| 20260508195507 | 69 | 51 | 2.6 | 6.1 | 0.00 | 0.01 | 0.01 | 44 | 1016.4 |
| 20260508195007 | 69 | 185 | 0.9 | 7.8 | 0.00 | 0.01 | 0.01 | 45 | 1016.5 |
| 20260508194522 | 69 | 50 | 3.5 | 7.8 | 0.00 | 0.01 | 0.01 | 42 | 1016.6 |
| 20260508194009 | 69 | 60 | 1.7 | 7.8 | 0.00 | 0.01 | 0.01 | 40 | 1016.7 |
| 20260508193509 | 70 | 360 | 4.3 | 7.8 | 0.00 | 0.01 | 0.01 | 41 | 1016.9 |
| 20260508193012 | 70 | 254 | 1.7 | 6.1 | 0.00 | 0.01 | 0.01 | 40 | 1017.0 |
| 20260508192926 | 71 | 282 | 0.0 | 7.0 | 0.00 | 0.00 | 0.00 | 38 | 1013.7 |
| 20260508192509 | 69 | 298 | 1.7 | 3.5 | 0.00 | 0.01 | 0.01 | 50 | 1017.0 |
| 20260508192008 | 69 | 323 | 1.7 | 7.0 | 0.00 | 0.01 | 0.01 | 47 | 1017.0 |
| 20260508191925 | 71 | 52 | 0.9 | 7.0 | 0.00 | 0.00 | 0.00 | 38 | 1013.8 |
| 20260508191511 | 69 | 251 | 2.6 | 7.0 | 0.00 | 0.01 | 0.01 | 43 | 1017.2 |
| 20260508191008 | 69 | 192 | 1.7 | 5.2 | 0.00 | 0.01 | 0.01 | 44 | 1017.2 |
| 20260508190923 | 70 | 234 | 2.6 | 4.3 | 0.00 | 0.00 | 0.00 | 37 | 1013.9 |
| 20260508190508 | 69 | 29 | 0.9 | 3.5 | 0.00 | 0.01 | 0.01 | 44 | 1017.2 |
| 20260508190035 | 69 | 40 | 1.7 | 3.5 | 0.00 | 0.01 | 0.01 | 42 | 1017.1 |
| 20260508185922 | 70 | 225 | 3.5 | 7.0 | 0.00 | 0.00 | 0.00 | 36 | 1013.9 |
| 20260508185508 | 68 | 243 | 0.9 | 3.5 | 0.00 | 0.01 | 0.01 | 45 | 1017.2 |
| 20260508185008 | 68 | 344 | 1.7 | 3.5 | 0.00 | 0.01 | 0.01 | 39 | 1017.3 |
| 20260508184922 | 69 | 165 | 0.9 | 3.5 | 0.00 | 0.00 | 0.00 | 43 | 1014.3 |
| 20260508184525 | 68 | 250 | 1.7 | 4.3 | 0.00 | 0.01 | 0.01 | 42 | 1017.3 |
| 20260508184008 | 68 | 293 | 0.9 | 7.0 | 0.00 | 0.01 | 0.01 | 43 | 1017.3 |
| 20260508183921 | 69 | 236 | 2.6 | 8.7 | 0.00 | 0.00 | 0.00 | 41 | 1014.3 |
| 20260508183509 | 67 | 241 | 4.3 | 7.0 | 0.00 | 0.01 | 0.01 | 40 | 1017.4 |
| 20260508183028 | 67 | 227 | 1.7 | 7.0 | 0.00 | 0.01 | 0.01 | 41 | 1017.4 |
| 20260508182919 | 68 | 252 | 2.6 | 6.1 | 0.00 | 0.00 | 0.00 | 38 | 1014.4 |
| 20260508182510 | 67 | 21 | 2.6 | 7.0 | 0.00 | 0.01 | 0.01 | 43 | 1017.5 |
| 20260508182006 | 67 | 352 | 3.5 | 5.2 | 0.00 | 0.01 | 0.01 | 42 | 1017.6 |
| 20260508181919 | 67 | 38 | 2.6 | 5.2 | 0.00 | 0.00 | 0.00 | 38 | 1014.5 |
| 20260508181518 | 67 | 11 | 0.9 | 4.3 | 0.00 | 0.01 | 0.01 | 40 | 1017.5 |
| 20260508181003 | 66 | 74 | 0.9 | 7.0 | 0.00 | 0.01 | 0.01 | 45 | 1017.6 |
| 20260508180917 | 67 | 100 | 1.7 | 7.0 | 0.00 | 0.00 | 0.00 | 39 | 1014.5 |
| 20260508180503 | 66 | 49 | 0.9 | 7.0 | 0.00 | 0.01 | 0.01 | 45 | 1017.6 |
| 20260508180004 | 66 | 351 | 1.7 | 6.1 | 0.00 | 0.01 | 0.01 | 49 | 1017.8 |
| 20260508175916 | 67 | 32 | 0.9 | 6.1 | 0.00 | 0.00 | 0.00 | 41 | 1014.7 |
| 20260508175502 | 66 | 76 | 2.6 | 6.1 | 0.00 | 0.01 | 0.01 | 43 | 1017.8 |
| 20260508175003 | 66 | 14 | 3.5 | 6.1 | 0.00 | 0.01 | 0.01 | 46 | 1017.8 |
| 20260508174916 | 67 | 45 | 1.7 | 5.2 | 0.00 | 0.00 | 0.00 | 44 | 1014.9 |
| 20260508174510 | 66 | 289 | 0.0 | 2.6 | 0.00 | 0.01 | 0.01 | 48 | 1017.9 |
| 20260508174003 | 65 | 206 | 0.9 | 7.0 | 0.00 | 0.01 | 0.01 | 41 | 1018.0 |
| 20260508173504 | 65 | 348 | 3.5 | 7.0 | 0.00 | 0.01 | 0.01 | 44 | 1018.1 |
| 20260508173007 | 65 | 24 | 2.6 | 7.0 | 0.00 | 0.01 | 0.01 | 49 | 1018.2 |
| 20260508172913 | 66 | 249 | 0.0 | 5.2 | 0.00 | 0.00 | 0.00 | 40 | 1015.3 |
| 20260508172511 | 66 | 352 | 3.5 | 7.0 | 0.00 | 0.01 | 0.01 | 47 | 1018.3 |
| 20260508172003 | 66 | 229 | 0.9 | 3.5 | 0.00 | 0.01 | 0.01 | 44 | 1018.3 |
| 20260508171504 | 66 | 134 | 0.9 | 4.3 | 0.00 | 0.01 | 0.01 | 43 | 1018.7 |
| 20260508171002 | 66 | 140 | 2.6 | 4.3 | 0.00 | 0.01 | 0.01 | 41 | 1018.7 |
| 20260508170911 | 65 | 85 | 1.7 | 6.1 | 0.00 | 0.00 | 0.00 | 46 | 1015.8 |
| 20260508170502 | 66 | 95 | 0.9 | 6.1 | 0.00 | 0.01 | 0.01 | 49 | 1018.8 |
| 20260508170003 | 65 | 134 | 0.9 | 6.1 | 0.00 | 0.01 | 0.01 | 49 | 1019.0 |
| 20260508165910 | 65 | 105 | 3.5 | 7.0 | 0.00 | 0.00 | 0.00 | 40 | 1016.0 |
| 20260508165503 | 65 | 352 | 0.9 | 3.5 | 0.00 | 0.01 | 0.01 | 47 | 1019.1 |
| 20260508165002 | 64 | 112 | 1.7 | 4.3 | 0.00 | 0.01 | 0.01 | 51 | 1019.2 |
| 20260508164909 | 66 | 78 | 3.5 | 7.0 | 0.00 | 0.00 | 0.00 | 42 | 1016.2 |
| 20260508164506 | 63 | 161 | 1.7 | 4.3 | 0.00 | 0.01 | 0.01 | 52 | 1019.3 |
| 20260508164004 | 63 | 330 | 1.7 | 6.1 | 0.00 | 0.01 | 0.01 | 51 | 1019.4 |
| 20260508163908 | 66 | 209 | 0.0 | 3.5 | 0.00 | 0.00 | 0.00 | 46 | 1016.4 |
| 20260508163503 | 63 | 38 | 2.6 | 6.1 | 0.00 | 0.01 | 0.01 | 47 | 1019.4 |
| 20260508163030 | 63 | 28 | 2.6 | 7.0 | 0.00 | 0.01 | 0.01 | 48 | 1019.4 |
| 20260508162907 | 65 | 46 | 0.9 | 4.3 | 0.00 | 0.00 | 0.00 | 47 | 1016.5 |
| 20260508162507 | 63 | 346 | 0.9 | 7.0 | 0.00 | 0.01 | 0.01 | 53 | 1019.5 |
| 20260508162008 | 63 | 26 | 2.6 | 7.0 | 0.00 | 0.01 | 0.01 | 52 | 1019.5 |
| 20260508161906 | 65 | 181 | 0.9 | 3.5 | 0.00 | 0.00 | 0.00 | 44 | 1016.6 |
| 20260508161513 | 63 | 186 | 0.0 | 4.3 | 0.00 | 0.01 | 0.01 | 46 | 1019.5 |
| 20260508161003 | 63 | 327 | 1.7 | 4.3 | 0.00 | 0.01 | 0.01 | 46 | 1019.6 |
| 20260508160904 | 64 | 40 | 1.7 | 3.5 | 0.00 | 0.00 | 0.00 | 45 | 1016.7 |
| 20260508160506 | 63 | 289 | 2.6 | 5.2 | 0.00 | 0.01 | 0.01 | 51 | 1019.7 |
| 20260508160004 | 63 | 289 | 2.6 | 6.1 | 0.00 | 0.01 | 0.01 | 45 | 1019.8 |
| 20260508155904 | 63 | 298 | 1.7 | 5.2 | 0.00 | 0.00 | 0.00 | 40 | 1017.0 |
| 20260508155503 | 63 | 244 | 1.7 | 6.1 | 0.00 | 0.01 | 0.01 | 50 | 1019.9 |
| 20260508155003 | 63 | 87 | 0.9 | 3.5 | 0.00 | 0.01 | 0.01 | 47 | 1019.9 |
| 20260508154903 | 63 | 106 | 0.0 | 5.2 | 0.00 | 0.00 | 0.00 | 39 | 1017.1 |
| 20260508154504 | 62 | 33 | 0.0 | 2.6 | 0.00 | 0.01 | 0.01 | 62 | 1019.9 |
| 20260508154006 | 62 | 69 | 0.9 | 2.6 | 0.00 | 0.01 | 0.01 | 55 | 1020.0 |
| 20260508153902 | 62 | 121 | 3.5 | 4.3 | 0.00 | 0.00 | 0.00 | 47 | 1017.2 |
| 20260508153504 | 61 | 32 | 0.9 | 2.6 | 0.00 | 0.01 | 0.01 | 64 | 1020.0 |
| 20260508153009 | 61 | 71 | 0.9 | 2.6 | 0.00 | 0.02 | 0.01 | 66 | 1020.0 |
| 20260508152901 | 62 | 336 | 1.7 | 3.5 | 0.00 | 0.00 | 0.00 | 52 | 1017.3 |
| 20260508152503 | 60 | 329 | 1.7 | 6.1 | 0.00 | 0.02 | 0.01 | 61 | 1020.1 |
| 20260508152003 | 60 | 26 | 1.7 | 6.1 | 0.00 | 0.02 | 0.01 | 60 | 1020.1 |
| 20260508151900 | 61 | 109 | 2.6 | 3.5 | 0.00 | 0.00 | 0.00 | 59 | 1017.4 |
| 20260508151519 | 60 | 206 | 1.7 | 3.5 | 0.00 | 0.02 | 0.01 | 65 | 1020.2 |
| 20260508151007 | 59 | 22 | 0.9 | 3.5 | 0.00 | 0.02 | 0.01 | 67 | 1020.1 |
| 20260508150858 | 61 | 61 | 2.6 | 4.3 | 0.00 | 0.00 | 0.00 | 63 | 1017.4 |
| 20260508150507 | 59 | 23 | 0.9 | 6.1 | 0.00 | 0.02 | 0.01 | 68 | 1020.1 |
| 20260508150008 | 59 | 32 | 2.6 | 6.1 | 0.00 | 0.02 | 0.01 | 68 | 1020.2 |
| 20260508145858 | 60 | 17 | 1.7 | 3.5 | 0.00 | 0.00 | 0.00 | 64 | 1017.5 |
| 20260508145504 | 59 | 296 | 0.9 | 4.3 | 0.00 | 0.02 | 0.01 | 70 | 1020.3 |
| 20260508145008 | 59 | 352 | 2.6 | 7.0 | 0.00 | 0.02 | 0.01 | 72 | 1020.3 |
| 20260508144857 | 60 | 273 | 0.0 | 7.8 | 0.00 | 0.00 | 0.00 | 69 | 1017.5 |
| 20260508144504 | 58 | 336 | 3.5 | 7.0 | 0.00 | 0.02 | 0.01 | 69 | 1020.3 |
| 20260508144004 | 58 | 349 | 0.0 | 3.5 | 0.00 | 0.02 | 0.01 | 71 | 1020.3 |
| 20260508143856 | 59 | 137 | 2.6 | 7.0 | 0.00 | 0.00 | 0.00 | 67 | 1017.6 |
| 20260508143507 | 58 | 33 | 0.9 | 4.3 | 0.00 | 0.02 | 0.01 | 67 | 1020.4 |
| 20260508143003 | 58 | 46 | 3.5 | 4.3 | 0.00 | 0.02 | 0.01 | 75 | 1020.4 |
| 20260508142854 | 58 | 49 | 3.5 | 3.5 | 0.00 | 0.00 | 0.00 | 70 | 1017.6 |
| 20260508142504 | 58 | 16 | 0.9 | 2.6 | 0.00 | 0.03 | 0.01 | 81 | 1020.4 |
| 20260508142003 | 57 | 352 | 1.7 | 2.6 | 0.00 | 0.03 | 0.01 | 79 | 1020.4 |
| 20260508141854 | 58 | 332 | 1.7 | 2.6 | 0.00 | 0.00 | 0.00 | 72 | 1017.7 |
| 20260508141511 | 57 | 25 | 0.9 | 4.3 | 0.00 | 0.03 | 0.01 | 77 | 1020.4 |
| 20260508141003 | 57 | 42 | 0.9 | 4.3 | 0.00 | 0.03 | 0.01 | 78 | 1020.5 |
| 20260508140852 | 58 | 46 | 1.7 | 3.5 | 0.00 | 0.00 | 0.00 | 75 | 1017.7 |
| 20260508140507 | 57 | 40 | 1.7 | 2.6 | 0.00 | 0.03 | 0.01 | 81 | 1020.5 |
| 20260508140014 | 56 | 84 | 0.0 | 1.7 | 0.00 | 0.03 | 0.01 | 85 | 1020.4 |
| 20260508135851 | 57 | 80 | 1.7 | 3.5 | 0.00 | 0.00 | 0.00 | 78 | 1017.8 |
| 20260508135512 | 55 | 104 | 0.9 | 2.6 | 0.00 | 0.03 | 0.01 | 89 | 1020.5 |
| 20260508135007 | 55 | 145 | 0.9 | 2.6 | 0.00 | 0.03 | 0.01 | 90 | 1020.5 |
| 20260508134850 | 55 | 149 | 0.9 | 4.3 | 0.00 | 0.00 | 0.00 | 81 | 1017.7 |
| 20260508134515 | 54 | 161 | 1.7 | 2.6 | 0.00 | 0.03 | 0.01 | 92 | 1020.4 |
| 20260508134008 | 53 | 98 | 0.9 | 2.6 | 0.00 | 0.03 | 0.01 | 94 | 1020.5 |
| 20260508133850 | 54 | 129 | 1.7 | 2.6 | 0.00 | 0.00 | 0.00 | 86 | 1017.8 |
| 20260508133509 | 53 | 77 | 0.0 | 2.6 | 0.00 | 0.03 | 0.01 | 95 | 1020.4 |
| 20260508133004 | 52 | 95 | 0.9 | 2.6 | 0.00 | 0.03 | 0.01 | 96 | 1020.5 |
| 20260508132849 | 53 | 148 | 0.9 | 1.7 | 0.00 | 0.00 | 0.00 | 91 | 1017.7 |
| 20260508132502 | 52 | 122 | 1.7 | 2.6 | 0.00 | 0.03 | 0.01 | 96 | 1020.4 |
| 20260508132003 | 51 | 228 | 0.9 | 2.6 | 0.00 | 0.03 | 0.01 | 96 | 1020.3 |
| 20260508131848 | 52 | 148 | 0.0 | 2.6 | 0.00 | 0.00 | 0.00 | 93 | 1017.6 |
| 20260508131506 | 51 | 126 | 0.9 | 2.6 | 0.00 | 0.04 | 0.01 | 96 | 1020.3 |
| 20260508131004 | 50 | 143 | 1.7 | 2.6 | 0.00 | 0.04 | 0.01 | 96 | 1020.3 |
| 20260508130846 | 51 | 102 | 1.7 | 2.6 | 0.00 | 0.00 | 0.00 | 95 | 1017.6 |
| 20260508130503 | 50 | 96 | 0.9 | 2.6 | 0.00 | 0.04 | 0.01 | 96 | 1020.3 |
| 20260508130003 | 50 | 128 | 0.9 | 1.7 | 0.00 | 0.05 | 0.01 | 96 | 1020.5 |
| 20260508125845 | 50 | 82 | 0.0 | 3.5 | 0.00 | 0.00 | 0.00 | 95 | 1017.8 |
| 20260508125506 | 49 | 119 | 0.0 | 2.6 | 0.00 | 0.05 | 0.01 | 96 | 1020.5 |
| 20260508125008 | 49 | 103 | 0.9 | 2.6 | 0.00 | 0.05 | 0.01 | 96 | 1020.4 |
| 20260508124518 | 49 | 129 | 1.7 | 2.6 | 0.00 | 0.05 | 0.01 | 96 | 1020.4 |
| 20260508124004 | 49 | 123 | 0.9 | 2.6 | 0.00 | 0.05 | 0.01 | 96 | 1020.4 |
| 20260508123843 | 49 | 122 | 1.7 | 3.5 | 0.00 | 0.00 | 0.00 | 96 | 1017.7 |
| 20260508123504 | 48 | 101 | 0.0 | 2.6 | 0.00 | 0.05 | 0.01 | 96 | 1020.4 |
| 20260508123032 | 47 | 107 | 2.6 | 3.5 | 0.00 | 0.05 | 0.01 | 96 | 1020.4 |
| 20260508122842 | 48 | 136 | 0.9 | 3.5 | 0.00 | 0.00 | 0.00 | 96 | 1017.6 |
| 20260508122508 | 47 | 136 | 1.7 | 3.5 | 0.00 | 0.05 | 0.01 | 96 | 1020.4 |
| 20260508122007 | 47 | 136 | 2.6 | 3.5 | 0.00 | 0.05 | 0.01 | 96 | 1020.3 |
| 20260508121841 | 48 | 100 | 2.6 | 5.2 | 0.00 | 0.00 | 0.00 | 96 | 1017.5 |
| 20260508121507 | 46 | 119 | 2.6 | 3.5 | 0.00 | 0.05 | 0.01 | 96 | 1020.3 |
| 20260508121003 | 46 | 140 | 1.7 | 2.6 | 0.00 | 0.05 | 0.01 | 96 | 1020.1 |
| 20260508120840 | 46 | 127 | 2.6 | 2.6 | 0.00 | 0.00 | 0.00 | 96 | 1017.4 |
| 20260508120502 | 46 | 101 | 0.9 | 1.7 | 0.00 | 0.05 | 0.01 | 96 | 1020.1 |
| 20260508120009 | 45 | 112 | 0.9 | 2.6 | 0.00 | 0.05 | 0.01 | 96 | 1020.0 |
| 20260508115839 | 46 | 127 | 2.6 | 2.6 | 0.00 | 0.00 | 0.00 | 95 | 1017.3 |
| 20260508115510 | 45 | 115 | 0.9 | 3.5 | 0.00 | 0.05 | 0.01 | 96 | 1020.0 |
| 20260508115005 | 45 | 148 | 1.7 | 3.5 | 0.00 | 0.05 | 0.01 | 95 | 1019.9 |
| 20260508114838 | 46 | 127 | 2.6 | 3.5 | 0.00 | 0.00 | 0.00 | 95 | 1017.2 |
| 20260508114509 | 45 | 128 | 2.6 | 3.5 | 0.00 | 0.05 | 0.01 | 95 | 1019.8 |
| 20260508114007 | 45 | 111 | 0.9 | 3.5 | 0.00 | 0.05 | 0.01 | 95 | 1019.8 |
| 20260508113837 | 45 | 128 | 1.7 | 3.5 | 0.00 | 0.00 | 0.00 | 95 | 1017.0 |
| 20260508113508 | 44 | 142 | 1.7 | 3.5 | 0.00 | 0.05 | 0.01 | 95 | 1019.7 |
| 20260508113022 | 44 | 144 | 2.6 | 3.5 | 0.00 | 0.05 | 0.01 | 95 | 1019.7 |
| 20260508112836 | 45 | 129 | 0.9 | 2.6 | 0.00 | 0.00 | 0.00 | 95 | 1016.8 |
| 20260508112508 | 44 | 146 | 0.9 | 2.6 | 0.00 | 0.05 | 0.01 | 95 | 1019.6 |
| 20260508112009 | 44 | 157 | 1.7 | 2.6 | 0.00 | 0.05 | 0.01 | 95 | 1019.5 |
| 20260508111835 | 45 | 111 | 2.6 | 2.6 | 0.00 | 0.00 | 0.00 | 94 | 1016.6 |
| 20260508111525 | 44 | 146 | 1.7 | 2.6 | 0.00 | 0.05 | 0.01 | 95 | 1019.3 |
| 20260508111006 | 44 | 187 | 0.0 | 1.7 | 0.00 | 0.05 | 0.01 | 95 | 1019.2 |
| 20260508110834 | 45 | 111 | 0.0 | 1.7 | 0.00 | 0.00 | 0.00 | 94 | 1016.4 |
| 20260508110507 | 44 | 192 | 0.9 | 1.7 | 0.00 | 0.05 | 0.01 | 95 | 1019.3 |
| 20260508110006 | 44 | 182 | 0.9 | 1.7 | 0.00 | 0.05 | 0.01 | 95 | 1019.2 |
| 20260508105833 | 45 | 111 | 0.0 | 0.9 | 0.00 | 0.00 | 0.00 | 94 | 1016.4 |
| 20260508105506 | 44 | 188 | 0.9 | 1.7 | 0.00 | 0.05 | 0.01 | 95 | 1019.1 |
| 20260508105005 | 45 | 185 | 0.9 | 1.7 | 0.00 | 0.06 | 0.01 | 95 | 1019.1 |
| 20260508104513 | 45 | 185 | 0.9 | 1.7 | 0.00 | 0.06 | 0.01 | 95 | 1018.9 |
| 20260508104005 | 45 | 179 | 1.7 | 1.7 | 0.00 | 0.06 | 0.01 | 95 | 1018.9 |
| 20260508103503 | 45 | 171 | 0.0 | 0.0 | 0.00 | 0.06 | 0.01 | 95 | 1018.9 |
| 20260508103013 | 46 | 171 | 0.0 | 0.0 | 0.00 | 0.06 | 0.01 | 95 | 1018.8 |
| 20260508102830 | 47 | 111 | 0.0 | 0.0 | 0.00 | 0.00 | 0.00 | 95 | 1016.1 |
| 20260508102510 | 46 | 171 | 0.0 | 0.0 | 0.00 | 0.06 | 0.01 | 95 | 1018.7 |
| 20260508102010 | 46 | 171 | 0.0 | 0.0 | 0.00 | 0.06 | 0.01 | 95 | 1018.8 |
| 20260508101830 | 47 | 111 | 0.0 | 0.9 | 0.00 | 0.00 | 0.00 | 95 | 1016.0 |
| 20260508101524 | 46 | 171 | 0.0 | 0.0 | 0.00 | 0.06 | 0.01 | 95 | 1018.7 |
| 20260508101007 | 45 | 171 | 0.0 | 0.0 | 0.00 | 0.06 | 0.01 | 95 | 1018.6 |
| 20260508100828 | 47 | 90 | 0.0 | 0.0 | 0.00 | 0.00 | 0.00 | 95 | 1015.7 |
| 20260508100509 | 45 | 171 | 0.0 | 0.0 | 0.00 | 0.06 | 0.01 | 95 | 1018.5 |
| 20260508100027 | 45 | 171 | 0.0 | 0.0 | 0.00 | 0.06 | 0.01 | 95 | 1018.5 |
| 20260508095827 | 46 | 90 | 0.0 | 0.0 | 0.00 | 0.00 | 0.00 | 95 | 1015.7 |
| 20260508095507 | 45 | 171 | 0.0 | 0.0 | 0.00 | 0.07 | 0.01 | 95 | 1018.5 |
| 20260508095009 | 45 | 171 | 0.0 | 0.0 | 0.00 | 0.07 | 0.01 | 95 | 1018.5 |
| 20260508094826 | 46 | 90 | 0.0 | 0.0 | 0.00 | 0.00 | 0.00 | 95 | 1015.7 |
| 20260508094510 | 45 | 171 | 0.0 | 0.0 | 0.00 | 0.07 | 0.01 | 95 | 1018.3 |
| 20260508094006 | 45 | 171 | 0.0 | 0.0 | 0.00 | 0.07 | 0.01 | 95 | 1018.3 |
| 20260508093506 | 45 | 171 | 0.0 | 0.0 | 0.00 | 0.07 | 0.01 | 95 | 1018.2 |
| 20260508093037 | 45 | 171 | 0.0 | 0.0 | 0.00 | 0.07 | 0.01 | 95 | 1018.2 |
| 20260508092824 | 46 | 90 | 0.0 | 0.0 | 0.00 | 0.00 | 0.00 | 95 | 1015.5 |
| 20260508092506 | 45 | 171 | 0.0 | 1.7 | 0.00 | 0.07 | 0.01 | 95 | 1018.2 |
| 20260508092006 | 45 | 171 | 0.0 | 1.7 | 0.00 | 0.07 | 0.01 | 95 | 1018.3 |
| 20260508091823 | 46 | 90 | 0.0 | 1.7 | 0.00 | 0.00 | 0.00 | 94 | 1015.5 |
| 20260508091525 | 45 | 171 | 0.0 | 1.7 | 0.00 | 0.08 | 0.01 | 95 | 1018.3 |
| 20260508091009 | 45 | 171 | 0.0 | 1.7 | 0.00 | 0.10 | 0.01 | 95 | 1018.3 |
| 20260508090822 | 46 | 90 | 0.0 | 0.9 | 0.00 | 0.00 | 0.00 | 94 | 1015.5 |
| 20260508090502 | 45 | 171 | 0.0 | 1.7 | 0.00 | 0.10 | 0.01 | 95 | 1018.3 |
| 20260508090009 | 46 | 171 | 0.0 | 1.7 | 0.00 | 0.10 | 0.01 | 95 | 1018.2 |
| 20260508085820 | 46 | 90 | 0.0 | 0.9 | 0.00 | 0.00 | 0.00 | 94 | 1015.4 |
| 20260508085503 | 46 | 171 | 0.0 | 1.7 | 0.00 | 0.11 | 0.01 | 95 | 1018.2 |
| 20260508085003 | 46 | 171 | 0.0 | 1.7 | 0.00 | 0.11 | 0.01 | 95 | 1018.1 |
| 20260508084819 | 46 | 90 | 0.0 | 0.9 | 0.00 | 0.00 | 0.00 | 94 | 1015.3 |
| 20260508084508 | 46 | 171 | 0.0 | 1.7 | 0.00 | 0.12 | 0.01 | 95 | 1018.1 |
| 20260508084005 | 46 | 178 | 0.0 | 1.7 | 0.00 | 0.12 | 0.01 | 95 | 1018.2 |
| 20260508083818 | 47 | 90 | 0.0 | 0.9 | 0.00 | 0.00 | 0.00 | 94 | 1015.3 |
| 20260508083503 | 46 | 179 | 0.9 | 1.7 | 0.00 | 0.12 | 0.01 | 95 | 1018.1 |
| 20260508083020 | 46 | 145 | 0.0 | 1.7 | 0.00 | 0.12 | 0.01 | 95 | 1018.0 |
| 20260508082818 | 47 | 90 | 0.0 | 0.0 | 0.00 | 0.00 | 0.00 | 94 | 1015.2 |
| 20260508082506 | 46 | 145 | 0.0 | 1.7 | 0.01 | 0.13 | 0.01 | 95 | 1018.1 |
| 20260508082003 | 46 | 155 | 0.0 | 1.7 | 0.01 | 0.13 | 0.01 | 95 | 1018.2 |
| 20260508081817 | 47 | 90 | 0.0 | 0.0 | 0.00 | 0.00 | 0.00 | 95 | 1015.4 |
| 20260508081509 | 46 | 155 | 0.0 | 1.7 | 0.01 | 0.13 | 0.01 | 95 | 1018.1 |
| 20260508081002 | 46 | 155 | 0.9 | 1.7 | 0.01 | 0.13 | 0.01 | 95 | 1018.1 |
| 20260508080815 | 47 | 90 | 0.0 | 0.0 | 0.00 | 0.00 | 0.00 | 95 | 1015.2 |
| 20260508080505 | 46 | 134 | 0.0 | 1.7 | 0.01 | 0.13 | 0.01 | 95 | 1018.1 |
| 20260508080004 | 46 | 134 | 0.0 | 1.7 | 0.01 | 0.13 | 0.01 | 95 | 1018.2 |
| 20260508075815 | 47 | 90 | 0.0 | 0.0 | 0.00 | 0.00 | 0.00 | 95 | 1015.4 |
| 20260508075503 | 46 | 125 | 0.9 | 1.7 | 0.01 | 0.13 | 0.01 | 95 | 1018.2 |
| 20260508075002 | 46 | 140 | 0.9 | 1.7 | 0.01 | 0.13 | 0.01 | 95 | 1018.2 |
| 20260508074813 | 47 | 90 | 0.0 | 0.9 | 0.00 | 0.00 | 0.00 | 95 | 1015.4 |
| 20260508074512 | 46 | 118 | 0.0 | 1.7 | 0.01 | 0.14 | 0.01 | 95 | 1018.3 |
| 20260508074004 | 46 | 134 | 0.0 | 0.0 | 0.01 | 0.14 | 0.01 | 95 | 1018.3 |
| 20260508073813 | 47 | 90 | 0.0 | 0.0 | 0.00 | 0.00 | 0.00 | 95 | 1015.4 |
| 20260508073507 | 46 | 134 | 0.0 | 0.0 | 0.01 | 0.14 | 0.01 | 95 | 1018.3 |
| 20260508073005 | 46 | 134 | 0.0 | 0.9 | 0.01 | 0.14 | 0.01 | 95 | 1018.2 |
| 20260508072503 | 46 | 134 | 0.0 | 1.7 | 0.00 | 0.13 | 0.00 | 95 | 1018.2 |
| 20260508072007 | 45 | 139 | 0.0 | 1.7 | 0.00 | 0.13 | 0.00 | 95 | 1018.3 |
| 20260508071810 | 46 | 90 | 0.0 | 0.9 | 0.00 | 0.00 | 0.00 | 94 | 1015.3 |
| 20260508071517 | 45 | 139 | 0.9 | 1.7 | 0.00 | 0.13 | 0.00 | 95 | 1018.2 |
| 20260508071003 | 45 | 122 | 0.9 | 1.7 | 0.00 | 0.13 | 0.00 | 95 | 1018.2 |
| 20260508070809 | 46 | 90 | 1.7 | 1.7 | 0.00 | 0.00 | 0.00 | 94 | 1015.2 |
| 20260508070504 | 46 | 111 | 0.9 | 1.7 | 0.00 | 0.13 | 0.00 | 95 | 1018.2 |
| 20260508070018 | 46 | 111 | 0.0 | 0.0 | 0.00 | 0.13 | 0.00 | 95 | 1018.1 |
| 20260508065809 | 47 | 90 | 0.0 | 0.0 | 0.00 | 0.00 | 0.00 | 94 | 1015.1 |
| 20260508065503 | 46 | 111 | 0.0 | 0.0 | 0.00 | 0.13 | 0.00 | 95 | 1018.2 |
| 20260508065004 | 46 | 111 | 0.0 | 0.0 | 0.00 | 0.13 | 0.00 | 95 | 1018.0 |
| 20260508064807 | 47 | 90 | 0.0 | 0.0 | 0.00 | 0.00 | 0.00 | 94 | 1015.0 |
| 20260508064511 | 46 | 111 | 0.0 | 1.7 | 0.00 | 0.13 | 0.00 | 95 | 1018.1 |
| 20260508064003 | 46 | 111 | 0.0 | 1.7 | 0.00 | 0.13 | 0.00 | 95 | 1018.1 |
| 20260508063806 | 47 | 90 | 0.0 | 0.0 | 0.00 | 0.00 | 0.00 | 94 | 1015.1 |
| 20260508063506 | 46 | 111 | 0.0 | 1.7 | 0.00 | 0.13 | 0.00 | 95 | 1018.2 |
| 20260508063010 | 46 | 111 | 0.0 | 0.0 | 0.00 | 0.13 | 0.00 | 95 | 1018.3 |
| 20260508062806 | 47 | 90 | 0.0 | 0.9 | 0.00 | 0.00 | 0.00 | 94 | 1015.2 |
| 20260508062507 | 46 | 111 | 0.0 | 0.0 | 0.00 | 0.13 | 0.00 | 95 | 1018.2 |
| 20260508062007 | 46 | 111 | 0.0 | 0.0 | 0.00 | 0.13 | 0.00 | 95 | 1018.3 |
| 20260508061804 | 47 | 90 | 0.0 | 0.0 | 0.00 | 0.00 | 0.00 | 94 | 1015.2 |
| 20260508061508 | 46 | 111 | 0.0 | 0.0 | 0.00 | 0.13 | 0.00 | 95 | 1018.2 |
| 20260508061009 | 46 | 111 | 0.0 | 0.0 | 0.00 | 0.13 | 0.00 | 95 | 1018.3 |
| 20260508060804 | 47 | 90 | 0.0 | 0.0 | 0.00 | 0.00 | 0.00 | 94 | 1015.3 |
| 20260508060508 | 46 | 111 | 0.0 | 0.0 | 0.00 | 0.14 | 0.00 | 95 | 1018.3 |
| 20260508060017 | 46 | 111 | 0.0 | 0.0 | 0.00 | 0.14 | 0.00 | 95 | 1018.3 |
| 20260508055803 | 47 | 90 | 0.0 | 0.0 | 0.00 | 0.00 | 0.00 | 95 | 1015.3 |
| 20260508055503 | 46 | 111 | 0.0 | 0.0 | 0.00 | 0.14 | 0.00 | 95 | 1018.4 |
| 20260508055011 | 46 | 111 | 0.0 | 0.0 | 0.00 | 0.15 | 0.00 | 95 | 1018.5 |
| 20260508054801 | 47 | 90 | 0.0 | 0.0 | 0.00 | 0.00 | 0.00 | 94 | 1015.4 |
| 20260508054523 | 46 | 111 | 0.0 | 0.0 | 0.00 | 0.16 | 0.00 | 95 | 1018.4 |
| 20260508054003 | 46 | 111 | 0.0 | 0.0 | 0.00 | 0.16 | 0.00 | 95 | 1018.4 |
| 20260508053503 | 46 | 111 | 0.0 | 0.0 | 0.00 | 0.16 | 0.00 | 94 | 1018.5 |
| 20260508053009 | 46 | 111 | 0.0 | 1.7 | 0.00 | 0.16 | 0.00 | 94 | 1018.4 |
| 20260508052759 | 46 | 90 | 0.0 | 0.0 | 0.00 | 0.00 | 0.00 | 94 | 1015.4 |
| 20260508052507 | 46 | 111 | 0.0 | 1.7 | 0.00 | 0.16 | 0.00 | 94 | 1018.4 |
| 20260508052004 | 46 | 111 | 0.0 | 1.7 | 0.00 | 0.16 | 0.00 | 94 | 1018.4 |
| 20260508051758 | 46 | 90 | 0.0 | 0.9 | 0.00 | 0.00 | 0.00 | 93 | 1015.3 |
| 20260508051514 | 46 | 111 | 0.0 | 1.7 | 0.00 | 0.16 | 0.00 | 94 | 1018.4 |
| 20260508051007 | 46 | 111 | 0.0 | 0.0 | 0.00 | 0.16 | 0.00 | 94 | 1018.4 |
| 20260508050757 | 46 | 90 | 0.0 | 0.9 | 0.00 | 0.00 | 0.00 | 93 | 1015.2 |
| 20260508050505 | 45 | 111 | 0.0 | 0.9 | 0.00 | 0.16 | 0.00 | 94 | 1018.3 |
| 20260508050013 | 46 | 111 | 0.0 | 0.9 | 0.00 | 0.16 | 0.00 | 94 | 1018.3 |
| 20260508045756 | 46 | 90 | 0.0 | 0.0 | 0.00 | 0.00 | 0.00 | 93 | 1015.1 |
| 20260508045506 | 46 | 111 | 0.0 | 0.9 | 0.00 | 0.16 | 0.00 | 94 | 1018.3 |
| 20260508045006 | 46 | 111 | 0.0 | 0.9 | 0.00 | 0.16 | 0.00 | 94 | 1018.1 |
| 20260508044755 | 46 | 90 | 0.0 | 0.0 | 0.00 | 0.00 | 0.00 | 93 | 1014.9 |
| 20260508044513 | 46 | 111 | 0.0 | 1.7 | 0.00 | 0.16 | 0.00 | 94 | 1018.1 |
| 20260508044004 | 46 | 111 | 0.0 | 1.7 | 0.00 | 0.16 | 0.00 | 94 | 1018.1 |
| 20260508043754 | 46 | 90 | 0.0 | 0.9 | 0.00 | 0.00 | 0.00 | 93 | 1014.8 |
| 20260508043510 | 46 | 111 | 0.0 | 1.7 | 0.00 | 0.16 | 0.00 | 94 | 1018.0 |
| 20260508043027 | 46 | 111 | 0.9 | 1.7 | 0.00 | 0.16 | 0.00 | 94 | 1018.0 |
| 20260508042508 | 46 | 111 | 0.0 | 0.9 | 0.00 | 0.16 | 0.00 | 94 | 1018.0 |
| 20260508042003 | 46 | 111 | 0.9 | 0.9 | 0.00 | 0.16 | 0.00 | 94 | 1017.8 |
| 20260508041752 | 46 | 90 | 0.9 | 0.9 | 0.00 | 0.00 | 0.00 | 93 | 1014.6 |
| 20260508041511 | 46 | 111 | 0.9 | 0.9 | 0.00 | 0.16 | 0.00 | 94 | 1017.9 |
| 20260508041007 | 46 | 111 | 0.9 | 1.7 | 0.00 | 0.16 | 0.00 | 94 | 1017.8 |
| 20260508040751 | 47 | 90 | 0.0 | 0.0 | 0.00 | 0.00 | 0.00 | 92 | 1014.5 |
| 20260508040507 | 46 | 111 | 0.0 | 1.7 | 0.00 | 0.16 | 0.00 | 94 | 1017.8 |
| 20260508040018 | 47 | 111 | 0.0 | 0.0 | 0.00 | 0.16 | 0.00 | 94 | 1017.8 |
| 20260508035750 | 47 | 90 | 0.0 | 0.0 | 0.00 | 0.00 | 0.19 | 92 | 1014.4 |
| 20260508035506 | 47 | 111 | 0.0 | 1.7 | 0.00 | 0.16 | 0.16 | 94 | 1017.7 |
| 20260508035007 | 47 | 111 | 0.0 | 1.7 | 0.00 | 0.16 | 0.16 | 94 | 1017.6 |
| 20260508034748 | 47 | 90 | 0.0 | 0.0 | 0.00 | 0.00 | 0.19 | 92 | 1014.3 |
| 20260508034521 | 47 | 111 | 0.0 | 1.7 | 0.00 | 0.17 | 0.16 | 94 | 1017.7 |
| 20260508034009 | 47 | 111 | 0.9 | 1.7 | 0.00 | 0.17 | 0.16 | 94 | 1017.6 |
| 20260508033747 | 47 | 90 | 0.9 | 1.7 | 0.00 | 0.00 | 0.19 | 92 | 1014.4 |
| 20260508033509 | 47 | 111 | 0.0 | 1.7 | 0.00 | 0.17 | 0.16 | 94 | 1017.6 |
| 20260508033024 | 47 | 112 | 0.0 | 0.0 | 0.00 | 0.17 | 0.16 | 93 | 1017.6 |
| 20260508032747 | 47 | 90 | 0.9 | 0.9 | 0.00 | 0.00 | 0.19 | 92 | 1014.3 |
| 20260508032513 | 47 | 94 | 0.0 | 0.0 | 0.00 | 0.17 | 0.16 | 93 | 1017.6 |
| 20260508032008 | 47 | 94 | 0.0 | 0.0 | 0.00 | 0.17 | 0.16 | 93 | 1017.6 |
| 20260508031745 | 47 | 90 | 0.0 | 0.0 | 0.00 | 0.00 | 0.19 | 92 | 1014.4 |
| 20260508031514 | 47 | 94 | 0.0 | 0.0 | 0.00 | 0.17 | 0.16 | 93 | 1017.8 |
| 20260508031006 | 47 | 94 | 0.0 | 0.0 | 0.00 | 0.17 | 0.16 | 93 | 1017.8 |
| 20260508030506 | 47 | 94 | 0.0 | 0.0 | 0.00 | 0.17 | 0.16 | 93 | 1017.7 |
| 20260508030016 | 48 | 94 | 0.0 | 0.0 | 0.00 | 0.17 | 0.16 | 93 | 1017.8 |
| 20260508025743 | 48 | 90 | 0.0 | 0.0 | 0.00 | 0.00 | 0.19 | 91 | 1014.4 |
| 20260508025503 | 48 | 94 | 0.0 | 0.0 | 0.00 | 0.17 | 0.16 | 93 | 1017.7 |
| 20260508025006 | 48 | 94 | 0.0 | 0.9 | 0.00 | 0.17 | 0.16 | 93 | 1017.6 |
| 20260508024743 | 48 | 90 | 0.0 | 1.7 | 0.00 | 0.00 | 0.19 | 91 | 1014.1 |
| 20260508024520 | 48 | 94 | 0.0 | 1.7 | 0.00 | 0.17 | 0.16 | 93 | 1017.5 |
| 20260508024006 | 48 | 94 | 0.9 | 1.7 | 0.00 | 0.17 | 0.16 | 93 | 1017.5 |
| 20260508023741 | 48 | 90 | 0.9 | 1.7 | 0.00 | 0.00 | 0.19 | 91 | 1014.2 |
| 20260508023508 | 48 | 122 | 0.0 | 0.0 | 0.00 | 0.17 | 0.16 | 93 | 1017.4 |
| 20260508023036 | 48 | 122 | 0.0 | 0.0 | 0.00 | 0.17 | 0.16 | 93 | 1017.3 |
| 20260508022741 | 49 | 90 | 0.0 | 0.0 | 0.00 | 0.00 | 0.19 | 91 | 1013.9 |
| 20260508022508 | 48 | 122 | 0.0 | 0.0 | 0.00 | 0.17 | 0.16 | 93 | 1017.2 |
| 20260508022004 | 49 | 122 | 0.0 | 0.0 | 0.00 | 0.17 | 0.16 | 93 | 1017.1 |
| 20260508021740 | 49 | 90 | 0.0 | 0.0 | 0.00 | 0.00 | 0.19 | 91 | 1013.7 |
| 20260508021524 | 49 | 122 | 0.0 | 0.0 | 0.00 | 0.18 | 0.16 | 93 | 1017.1 |
| 20260508021008 | 49 | 122 | 0.0 | 0.0 | 0.00 | 0.18 | 0.16 | 92 | 1017.1 |
| 20260508020738 | 49 | 90 | 0.0 | 0.0 | 0.00 | 0.00 | 0.19 | 90 | 1013.8 |
| 20260508020514 | 49 | 122 | 0.0 | 0.0 | 0.00 | 0.18 | 0.16 | 93 | 1017.2 |
| 20260508020022 | 49 | 122 | 0.0 | 0.0 | 0.00 | 0.18 | 0.16 | 92 | 1017.0 |
| 20260508015737 | 50 | 90 | 0.0 | 0.0 | 0.00 | 0.00 | 0.19 | 90 | 1013.6 |
| 20260508015509 | 49 | 125 | 0.0 | 0.9 | 0.00 | 0.18 | 0.16 | 92 | 1017.0 |
| 20260508015010 | 49 | 124 | 0.0 | 1.7 | 0.00 | 0.18 | 0.16 | 92 | 1016.8 |
| 20260508014737 | 50 | 90 | 0.0 | 0.0 | 0.00 | 0.00 | 0.19 | 89 | 1013.5 |
| 20260508014516 | 49 | 124 | 0.0 | 1.7 | 0.00 | 0.18 | 0.16 | 92 | 1016.9 |
| 20260508014009 | 50 | 124 | 0.0 | 0.9 | 0.00 | 0.18 | 0.16 | 92 | 1016.7 |
| 20260508013735 | 50 | 90 | 0.0 | 0.0 | 0.00 | 0.00 | 0.19 | 89 | 1013.1 |
| 20260508013508 | 50 | 124 | 0.0 | 0.9 | 0.00 | 0.19 | 0.16 | 92 | 1016.6 |
| 20260508013023 | 50 | 124 | 0.0 | 0.9 | 0.00 | 0.20 | 0.16 | 92 | 1016.5 |
| 20260508012506 | 50 | 124 | 0.9 | 0.9 | 0.00 | 0.21 | 0.16 | 91 | 1016.4 |
| 20260508012009 | 50 | 127 | 0.9 | 0.9 | 0.00 | 0.22 | 0.16 | 90 | 1016.5 |
| 20260508011525 | 51 | 136 | 0.9 | 1.7 | 0.00 | 0.23 | 0.16 | 90 | 1016.4 |
| 20260508011011 | 51 | 194 | 0.0 | 1.7 | 0.00 | 0.26 | 0.16 | 89 | 1016.4 |
| 20260508010734 | 52 | 90 | 0.0 | 0.0 | 0.00 | 0.00 | 0.19 | 87 | 1012.8 |
| 20260508010506 | 51 | 194 | 0.0 | 1.7 | 0.00 | 0.27 | 0.16 | 89 | 1016.3 |
| 20260508010037 | 52 | 194 | 0.0 | 1.7 | 0.00 | 0.29 | 0.16 | 89 | 1016.2 |
| 20260508005731 | 53 | 90 | 0.0 | 0.9 | 0.00 | 0.00 | 0.19 | 86 | 1012.5 |
| 20260508005508 | 52 | 194 | 0.0 | 1.7 | 0.00 | 0.30 | 0.16 | 88 | 1016.2 |
| 20260508005013 | 52 | 194 | 0.0 | 1.7 | 0.00 | 0.30 | 0.16 | 88 | 1016.2 |
| 20260508004730 | 53 | 90 | 0.0 | 0.9 | 0.00 | 0.00 | 0.19 | 87 | 1012.5 |
| 20260508004525 | 53 | 194 | 0.0 | 1.7 | 0.00 | 0.30 | 0.16 | 88 | 1016.0 |
| 20260508004013 | 53 | 194 | 0.0 | 0.9 | 0.00 | 0.31 | 0.16 | 87 | 1015.9 |
| 20260508003729 | 54 | 87 | 0.0 | 1.7 | 0.00 | 0.00 | 0.19 | 87 | 1012.4 |
| 20260508003515 | 54 | 194 | 0.0 | 0.9 | 0.00 | 0.33 | 0.16 | 86 | 1015.9 |
| 20260508003022 | 54 | 215 | 0.9 | 0.9 | 0.00 | 0.35 | 0.16 | 86 | 1015.8 |
| 20260508002728 | 55 | 94 | 0.0 | 0.0 | 0.00 | 0.00 | 0.19 | 86 | 1012.3 |
| 20260508002507 | 54 | 143 | 0.0 | 1.7 | 0.00 | 0.35 | 0.16 | 86 | 1015.8 |
| 20260508002006 | 54 | 143 | 0.0 | 1.7 | 0.00 | 0.36 | 0.16 | 86 | 1015.8 |
| 20260508001727 | 56 | 94 | 0.0 | 0.9 | 0.00 | 0.00 | 0.19 | 85 | 1012.1 |
| 20260508001505 | 55 | 143 | 0.0 | 1.7 | 0.00 | 0.36 | 0.16 | 85 | 1015.7 |
| 20260508001003 | 55 | 131 | 0.9 | 3.5 | 0.00 | 0.36 | 0.16 | 85 | 1015.8 |
| 20260508000726 | 56 | 94 | 0.0 | 0.9 | 0.00 | 0.00 | 0.19 | 84 | 1012.1 |
| 20260508000504 | 55 | 134 | 0.9 | 3.5 | 0.00 | 0.36 | 0.16 | 85 | 1015.8 |
| 20260508000007 | 55 | 159 | 0.9 | 1.7 | 0.00 | 0.36 | 0.16 | 84 | 1015.8 |
| 20260507235507 | 56 | 209 | 0.0 | 1.7 | 0.00 | 0.36 | 0.16 | 84 | 1015.8 |
| 20260507235005 | 56 | 225 | 0.0 | 1.7 | 0.00 | 0.36 | 0.16 | 84 | 1015.8 |
| 20260507234725 | 57 | 94 | 0.0 | 0.9 | 0.00 | 0.00 | 0.19 | 83 | 1012.3 |
| 20260507234508 | 56 | 212 | 0.0 | 1.7 | 0.00 | 0.36 | 0.16 | 84 | 1016.0 |
| 20260507234002 | 56 | 219 | 0.0 | 2.6 | 0.00 | 0.37 | 0.16 | 84 | 1015.9 |
| 20260507233723 | 57 | 94 | 0.0 | 1.7 | 0.00 | 0.00 | 0.19 | 83 | 1012.2 |
| 20260507233503 | 56 | 150 | 0.0 | 3.5 | 0.00 | 0.37 | 0.16 | 84 | 1015.9 |
| 20260507233003 | 56 | 142 | 1.7 | 5.2 | 0.00 | 0.37 | 0.16 | 84 | 1016.0 |
| 20260507232722 | 57 | 94 | 0.9 | 2.6 | 0.00 | 0.00 | 0.19 | 84 | 1012.3 |
| 20260507232503 | 56 | 138 | 1.7 | 5.2 | 0.00 | 0.37 | 0.16 | 84 | 1016.1 |
| 20260507232002 | 57 | 84 | 0.9 | 5.2 | 0.00 | 0.37 | 0.16 | 85 | 1016.0 |
| 20260507231721 | 57 | 94 | 0.0 | 4.3 | 0.00 | 0.00 | 0.19 | 85 | 1012.1 |
| 20260507231504 | 57 | 135 | 1.7 | 5.2 | 0.00 | 0.37 | 0.16 | 85 | 1016.0 |
| 20260507231004 | 57 | 126 | 0.9 | 3.5 | 0.00 | 0.37 | 0.16 | 85 | 1016.0 |
| 20260507230721 | 57 | 111 | 0.9 | 3.5 | 0.00 | 0.00 | 0.19 | 83 | 1012.3 |
| 20260507230502 | 57 | 173 | 1.7 | 5.2 | 0.00 | 0.38 | 0.16 | 84 | 1016.1 |
| 20260507230005 | 57 | 136 | 2.6 | 5.2 | 0.00 | 0.38 | 0.16 | 84 | 1016.1 |
| 20260507225719 | 58 | 143 | 0.9 | 3.5 | 0.00 | 0.00 | 0.19 | 83 | 1012.3 |
| 20260507225504 | 57 | 136 | 2.6 | 4.3 | 0.00 | 0.38 | 0.16 | 83 | 1016.3 |
| 20260507225004 | 57 | 100 | 0.9 | 2.6 | 0.00 | 0.39 | 0.16 | 85 | 1016.2 |
| 20260507224504 | 57 | 188 | 1.7 | 3.5 | 0.00 | 0.40 | 0.16 | 85 | 1016.3 |
| 20260507224004 | 57 | 154 | 0.9 | 3.5 | 0.00 | 0.40 | 0.16 | 84 | 1016.3 |
| 20260507223716 | 57 | 163 | 1.7 | 2.6 | 0.00 | 0.00 | 0.19 | 83 | 1012.5 |
| 20260507223504 | 57 | 144 | 0.9 | 3.5 | 0.00 | 0.40 | 0.16 | 82 | 1016.4 |
| 20260507223013 | 57 | 169 | 1.7 | 4.3 | 0.00 | 0.40 | 0.16 | 82 | 1016.3 |
| 20260507222715 | 58 | 198 | 0.0 | 3.5 | 0.00 | 0.00 | 0.19 | 82 | 1012.4 |
| 20260507222504 | 57 | 223 | 0.9 | 4.3 | 0.00 | 0.40 | 0.16 | 82 | 1016.3 |
| 20260507222009 | 57 | 157 | 1.7 | 3.5 | 0.00 | 0.40 | 0.16 | 83 | 1016.3 |
| 20260507221715 | 58 | 97 | 2.6 | 5.2 | 0.00 | 0.00 | 0.19 | 82 | 1012.4 |
| 20260507221503 | 57 | 155 | 1.7 | 3.5 | 0.00 | 0.40 | 0.16 | 83 | 1016.2 |
| 20260507221002 | 57 | 155 | 1.7 | 4.3 | 0.00 | 0.40 | 0.16 | 82 | 1016.1 |
| 20260507220713 | 58 | 113 | 0.0 | 4.3 | 0.00 | 0.00 | 0.19 | 80 | 1012.2 |
| 20260507220509 | 57 | 209 | 1.7 | 4.3 | 0.00 | 0.40 | 0.16 | 82 | 1016.1 |
| 20260507220005 | 57 | 142 | 1.7 | 3.5 | 0.00 | 0.40 | 0.16 | 83 | 1016.1 |
| 20260507215713 | 58 | 137 | 1.7 | 2.6 | 0.00 | 0.00 | 0.19 | 81 | 1012.2 |
| 20260507215507 | 57 | 162 | 1.7 | 3.5 | 0.00 | 0.40 | 0.16 | 82 | 1016.0 |
| 20260507215003 | 57 | 146 | 1.7 | 3.5 | 0.00 | 0.40 | 0.16 | 82 | 1016.0 |
| 20260507214711 | 58 | 141 | 0.0 | 2.6 | 0.00 | 0.00 | 0.19 | 80 | 1012.1 |
| 20260507214508 | 57 | 215 | 0.9 | 3.5 | 0.00 | 0.40 | 0.16 | 82 | 1016.0 |